sensor_id;sensor_type;location;lat;lon;timestamp;P1;durP1;ratioP1;P2;durP2;ratioP2
3953;SDS011;1991;48.682;9.030;2023-05-10T00:01:54;1.25;;;0.70;;
3953;SDS011;1991;48.682;9.030;2023-05-10T00:04:20;1.50;;;0.70;;
3953;SDS011;1991;48.682;9.030;2023-05-10T00:06:46;0.90;;;0.70;;
3953;SDS011;1991;48.682;9.030;2023-05-10T00:09:11;0.65;;;0.52;;
3953;SDS011;1991;48.682;9.030;2023-05-10T00:11:37;0.50;;;0.50;;
3953;SDS011;1991;48.682;9.030;2023-05-10T00:14:03;4.22;;;0.65;;
3953;SDS011;1991;48.682;9.030;2023-05-10T00:16:28;2.35;;;0.55;;
3953;SDS011;1991;48.682;9.030;2023-05-10T00:18:54;0.50;;;0.50;;
3953;SDS011;1991;48.682;9.030;2023-05-10T00:21:20;1.02;;;0.65;;
3953;SDS011;1991;48.682;9.030;2023-05-10T00:23:46;6.13;;;0.63;;
3953;SDS011;1991;48.682;9.030;2023-05-10T00:26:11;1.85;;;0.60;;
3953;SDS011;1991;48.682;9.030;2023-05-10T00:28:37;0.85;;;0.30;;
3953;SDS011;1991;48.682;9.030;2023-05-10T00:31:03;0.20;;;0.20;;
3953;SDS011;1991;48.682;9.030;2023-05-10T00:33:28;0.13;;;0.13;;
3953;SDS011;1991;48.682;9.030;2023-05-10T00:35:54;0.63;;;0.20;;
3953;SDS011;1991;48.682;9.030;2023-05-10T00:38:20;1.55;;;0.20;;
3953;SDS011;1991;48.682;9.030;2023-05-10T00:40:45;0.47;;;0.10;;
3953;SDS011;1991;48.682;9.030;2023-05-10T00:43:11;2.80;;;0.50;;
3953;SDS011;1991;48.682;9.030;2023-05-10T00:45:37;4.68;;;0.30;;
3953;SDS011;1991;48.682;9.030;2023-05-10T00:48:04;0.20;;;0.10;;
3953;SDS011;1991;48.682;9.030;2023-05-10T00:50:31;0.70;;;0.25;;
3953;SDS011;1991;48.682;9.030;2023-05-10T00:52:58;0.20;;;0.15;;
3953;SDS011;1991;48.682;9.030;2023-05-10T00:55:25;2.28;;;0.20;;
3953;SDS011;1991;48.682;9.030;2023-05-10T00:57:51;0.30;;;0.17;;
3953;SDS011;1991;48.682;9.030;2023-05-10T01:00:18;0.32;;;0.25;;
3953;SDS011;1991;48.682;9.030;2023-05-10T01:02:44;2.15;;;0.10;;
3953;SDS011;1991;48.682;9.030;2023-05-10T01:05:11;0.20;;;0.17;;
3953;SDS011;1991;48.682;9.030;2023-05-10T01:07:37;0.75;;;0.20;;
3953;SDS011;1991;48.682;9.030;2023-05-10T01:10:04;1.20;;;0.20;;
3953;SDS011;1991;48.682;9.030;2023-05-10T01:12:31;1.50;;;0.20;;
3953;SDS011;1991;48.682;9.030;2023-05-10T01:14:57;2.72;;;0.20;;
3953;SDS011;1991;48.682;9.030;2023-05-10T01:17:23;2.83;;;0.22;;
3953;SDS011;1991;48.682;9.030;2023-05-10T01:19:49;0.45;;;0.10;;
3953;SDS011;1991;48.682;9.030;2023-05-10T01:25:11;3.08;;;0.20;;
3953;SDS011;1991;48.682;9.030;2023-05-10T01:31:10;3.60;;;0.20;;
3953;SDS011;1991;48.682;9.030;2023-05-10T01:33:47;1.85;;;0.22;;
3953;SDS011;1991;48.682;9.030;2023-05-10T01:36:43;0.73;;;0.20;;
3953;SDS011;1991;48.682;9.030;2023-05-10T01:42:04;1.38;;;0.10;;
3953;SDS011;1991;48.682;9.030;2023-05-10T01:47:25;0.20;;;0.10;;
3953;SDS011;1991;48.682;9.030;2023-05-10T01:49:53;0.10;;;0.10;;
3953;SDS011;1991;48.682;9.030;2023-05-10T01:52:22;0.25;;;0.20;;
3953;SDS011;1991;48.682;9.030;2023-05-10T01:54:53;0.88;;;0.10;;
3953;SDS011;1991;48.682;9.030;2023-05-10T01:57:25;0.52;;;0.25;;
3953;SDS011;1991;48.682;9.030;2023-05-10T01:59:52;1.30;;;0.10;;
3953;SDS011;1991;48.682;9.030;2023-05-10T02:02:20;2.03;;;0.20;;
3953;SDS011;1991;48.682;9.030;2023-05-10T02:04:46;4.28;;;0.28;;
3953;SDS011;1991;48.682;9.030;2023-05-10T02:07:14;2.75;;;0.30;;
3953;SDS011;1991;48.682;9.030;2023-05-10T02:09:41;0.25;;;0.15;;
3953;SDS011;1991;48.682;9.030;2023-05-10T02:12:13;0.63;;;0.10;;
3953;SDS011;1991;48.682;9.030;2023-05-10T02:14:40;1.75;;;0.40;;
3953;SDS011;1991;48.682;9.030;2023-05-10T02:17:07;0.95;;;0.17;;
3953;SDS011;1991;48.682;9.030;2023-05-10T02:19:35;0.68;;;0.20;;
3953;SDS011;1991;48.682;9.030;2023-05-10T02:22:03;1.02;;;0.32;;
3953;SDS011;1991;48.682;9.030;2023-05-10T02:24:30;0.70;;;0.10;;
3953;SDS011;1991;48.682;9.030;2023-05-10T02:26:58;0.35;;;0.30;;
3953;SDS011;1991;48.682;9.030;2023-05-10T02:29:25;0.32;;;0.20;;
3953;SDS011;1991;48.682;9.030;2023-05-10T02:31:52;0.40;;;0.20;;
3953;SDS011;1991;48.682;9.030;2023-05-10T02:34:20;1.85;;;0.30;;
3953;SDS011;1991;48.682;9.030;2023-05-10T02:36:47;1.60;;;0.40;;
3953;SDS011;1991;48.682;9.030;2023-05-10T02:39:14;0.10;;;0.10;;
3953;SDS011;1991;48.682;9.030;2023-05-10T02:41:40;0.30;;;0.20;;
3953;SDS011;1991;48.682;9.030;2023-05-10T02:44:07;1.90;;;0.38;;
3953;SDS011;1991;48.682;9.030;2023-05-10T02:46:34;1.75;;;0.25;;
3953;SDS011;1991;48.682;9.030;2023-05-10T02:49:01;1.98;;;0.32;;
3953;SDS011;1991;48.682;9.030;2023-05-10T02:51:28;3.88;;;0.40;;
3953;SDS011;1991;48.682;9.030;2023-05-10T02:54:00;1.33;;;0.50;;
3953;SDS011;1991;48.682;9.030;2023-05-10T02:56:41;0.77;;;0.40;;
3953;SDS011;1991;48.682;9.030;2023-05-10T02:59:12;3.33;;;0.30;;
3953;SDS011;1991;48.682;9.030;2023-05-10T03:01:37;0.40;;;0.30;;
3953;SDS011;1991;48.682;9.030;2023-05-10T03:04:03;1.17;;;0.40;;
3953;SDS011;1991;48.682;9.030;2023-05-10T03:06:29;1.67;;;0.30;;
3953;SDS011;1991;48.682;9.030;2023-05-10T03:08:55;1.17;;;0.82;;
3953;SDS011;1991;48.682;9.030;2023-05-10T03:17:10;0.40;;;0.40;;
3953;SDS011;1991;48.682;9.030;2023-05-10T03:19:47;2.05;;;0.52;;
3953;SDS011;1991;48.682;9.030;2023-05-10T03:22:37;2.65;;;0.52;;
3953;SDS011;1991;48.682;9.030;2023-05-10T03:25:06;0.60;;;0.60;;
3953;SDS011;1991;48.682;9.030;2023-05-10T03:27:33;0.60;;;0.50;;
3953;SDS011;1991;48.682;9.030;2023-05-10T03:30:02;1.83;;;0.45;;
3953;SDS011;1991;48.682;9.030;2023-05-10T03:32:29;0.60;;;0.47;;
3953;SDS011;1991;48.682;9.030;2023-05-10T03:34:56;3.72;;;0.50;;
3953;SDS011;1991;48.682;9.030;2023-05-10T03:37:22;4.13;;;0.57;;
3953;SDS011;1991;48.682;9.030;2023-05-10T03:39:48;1.65;;;0.55;;
3953;SDS011;1991;48.682;9.030;2023-05-10T03:42:13;1.88;;;0.40;;
3953;SDS011;1991;48.682;9.030;2023-05-10T03:44:39;0.77;;;0.50;;
3953;SDS011;1991;48.682;9.030;2023-05-10T03:47:05;2.08;;;0.40;;
3953;SDS011;1991;48.682;9.030;2023-05-10T03:49:31;2.22;;;0.40;;
3953;SDS011;1991;48.682;9.030;2023-05-10T03:51:57;0.73;;;0.40;;
3953;SDS011;1991;48.682;9.030;2023-05-10T03:54:22;0.50;;;0.50;;
3953;SDS011;1991;48.682;9.030;2023-05-10T03:56:48;0.50;;;0.30;;
3953;SDS011;1991;48.682;9.030;2023-05-10T03:59:14;1.67;;;0.57;;
3953;SDS011;1991;48.682;9.030;2023-05-10T04:01:40;1.05;;;0.70;;
3953;SDS011;1991;48.682;9.030;2023-05-10T04:04:05;0.95;;;0.50;;
3953;SDS011;1991;48.682;9.030;2023-05-10T04:06:31;0.68;;;0.60;;
3953;SDS011;1991;48.682;9.030;2023-05-10T04:08:57;3.67;;;0.70;;
3953;SDS011;1991;48.682;9.030;2023-05-10T04:11:25;0.55;;;0.50;;
3953;SDS011;1991;48.682;9.030;2023-05-10T04:13:50;3.35;;;0.60;;
3953;SDS011;1991;48.682;9.030;2023-05-10T04:16:16;0.95;;;0.68;;
3953;SDS011;1991;48.682;9.030;2023-05-10T04:18:41;1.52;;;0.60;;
3953;SDS011;1991;48.682;9.030;2023-05-10T04:21:11;1.55;;;0.60;;
3953;SDS011;1991;48.682;9.030;2023-05-10T04:23:37;0.57;;;0.50;;
3953;SDS011;1991;48.682;9.030;2023-05-10T04:26:03;1.42;;;0.70;;
3953;SDS011;1991;48.682;9.030;2023-05-10T04:28:29;1.08;;;0.57;;
3953;SDS011;1991;48.682;9.030;2023-05-10T04:31:01;1.00;;;0.70;;
3953;SDS011;1991;48.682;9.030;2023-05-10T04:33:28;2.50;;;0.80;;
3953;SDS011;1991;48.682;9.030;2023-05-10T04:35:53;0.50;;;0.40;;
3953;SDS011;1991;48.682;9.030;2023-05-10T04:38:19;6.07;;;0.60;;
3953;SDS011;1991;48.682;9.030;2023-05-10T04:40:45;0.70;;;0.70;;
3953;SDS011;1991;48.682;9.030;2023-05-10T04:43:10;2.10;;;0.60;;
3953;SDS011;1991;48.682;9.030;2023-05-10T04:45:36;0.93;;;0.75;;
3953;SDS011;1991;48.682;9.030;2023-05-10T04:48:01;1.53;;;0.70;;
3953;SDS011;1991;48.682;9.030;2023-05-10T04:50:27;1.67;;;0.93;;
3953;SDS011;1991;48.682;9.030;2023-05-10T04:52:53;2.95;;;0.77;;
3953;SDS011;1991;48.682;9.030;2023-05-10T04:55:18;0.60;;;0.60;;
3953;SDS011;1991;48.682;9.030;2023-05-10T04:57:44;2.67;;;0.63;;
3953;SDS011;1991;48.682;9.030;2023-05-10T05:00:10;3.28;;;0.80;;
3953;SDS011;1991;48.682;9.030;2023-05-10T05:02:36;3.50;;;0.75;;
3953;SDS011;1991;48.682;9.030;2023-05-10T05:05:01;1.73;;;1.08;;
3953;SDS011;1991;48.682;9.030;2023-05-10T05:07:27;1.25;;;0.70;;
3953;SDS011;1991;48.682;9.030;2023-05-10T05:09:53;1.95;;;0.63;;
3953;SDS011;1991;48.682;9.030;2023-05-10T05:12:18;1.52;;;0.68;;
3953;SDS011;1991;48.682;9.030;2023-05-10T05:14:44;0.80;;;0.80;;
3953;SDS011;1991;48.682;9.030;2023-05-10T05:17:09;3.42;;;0.90;;
3953;SDS011;1991;48.682;9.030;2023-05-10T05:19:35;5.20;;;0.80;;
3953;SDS011;1991;48.682;9.030;2023-05-10T05:22:01;1.98;;;0.95;;
3953;SDS011;1991;48.682;9.030;2023-05-10T05:24:27;4.38;;;0.90;;
3953;SDS011;1991;48.682;9.030;2023-05-10T05:26:53;2.47;;;0.80;;
3953;SDS011;1991;48.682;9.030;2023-05-10T05:29:18;2.97;;;0.90;;
3953;SDS011;1991;48.682;9.030;2023-05-10T05:31:44;1.05;;;0.82;;
3953;SDS011;1991;48.682;9.030;2023-05-10T05:34:09;1.98;;;0.60;;
3953;SDS011;1991;48.682;9.030;2023-05-10T05:36:36;0.80;;;0.70;;
3953;SDS011;1991;48.682;9.030;2023-05-10T05:39:03;1.70;;;0.68;;
3953;SDS011;1991;48.682;9.030;2023-05-10T05:41:28;1.02;;;0.70;;
3953;SDS011;1991;48.682;9.030;2023-05-10T05:43:54;2.00;;;0.70;;
3953;SDS011;1991;48.682;9.030;2023-05-10T05:46:20;2.15;;;0.65;;
3953;SDS011;1991;48.682;9.030;2023-05-10T05:48:45;2.67;;;0.90;;
3953;SDS011;1991;48.682;9.030;2023-05-10T05:51:11;2.45;;;0.80;;
3953;SDS011;1991;48.682;9.030;2023-05-10T05:53:36;1.83;;;0.80;;
3953;SDS011;1991;48.682;9.030;2023-05-10T05:56:02;1.00;;;0.90;;
3953;SDS011;1991;48.682;9.030;2023-05-10T05:58:28;4.13;;;0.60;;
3953;SDS011;1991;48.682;9.030;2023-05-10T06:00:54;3.30;;;0.75;;
3953;SDS011;1991;48.682;9.030;2023-05-10T06:03:19;1.15;;;0.90;;
3953;SDS011;1991;48.682;9.030;2023-05-10T06:05:45;1.02;;;0.70;;
3953;SDS011;1991;48.682;9.030;2023-05-10T06:08:11;2.28;;;0.90;;
3953;SDS011;1991;48.682;9.030;2023-05-10T06:10:37;2.53;;;0.75;;
3953;SDS011;1991;48.682;9.030;2023-05-10T06:13:02;2.08;;;1.00;;
3953;SDS011;1991;48.682;9.030;2023-05-10T06:15:28;1.25;;;0.80;;
3953;SDS011;1991;48.682;9.030;2023-05-10T06:17:54;2.45;;;0.77;;
3953;SDS011;1991;48.682;9.030;2023-05-10T06:20:19;1.45;;;1.00;;
3953;SDS011;1991;48.682;9.030;2023-05-10T06:22:45;0.75;;;0.60;;
3953;SDS011;1991;48.682;9.030;2023-05-10T06:25:11;0.70;;;0.70;;
3953;SDS011;1991;48.682;9.030;2023-05-10T06:27:36;2.50;;;1.05;;
3953;SDS011;1991;48.682;9.030;2023-05-10T06:30:02;2.33;;;0.98;;
3953;SDS011;1991;48.682;9.030;2023-05-10T06:32:29;1.48;;;0.93;;
3953;SDS011;1991;48.682;9.030;2023-05-10T06:34:55;3.45;;;1.02;;
3953;SDS011;1991;48.682;9.030;2023-05-10T06:37:21;1.10;;;0.85;;
3953;SDS011;1991;48.682;9.030;2023-05-10T06:39:46;1.23;;;0.73;;
3953;SDS011;1991;48.682;9.030;2023-05-10T06:42:12;3.25;;;1.10;;
3953;SDS011;1991;48.682;9.030;2023-05-10T06:44:37;0.90;;;0.80;;
3953;SDS011;1991;48.682;9.030;2023-05-10T06:47:03;3.03;;;1.63;;
3953;SDS011;1991;48.682;9.030;2023-05-10T06:49:28;3.42;;;1.05;;
3953;SDS011;1991;48.682;9.030;2023-05-10T06:51:57;2.10;;;0.98;;
3953;SDS011;1991;48.682;9.030;2023-05-10T06:54:23;1.60;;;0.70;;
3953;SDS011;1991;48.682;9.030;2023-05-10T06:56:48;1.45;;;0.95;;
3953;SDS011;1991;48.682;9.030;2023-05-10T06:59:14;5.45;;;1.13;;
3953;SDS011;1991;48.682;9.030;2023-05-10T07:01:41;2.75;;;0.90;;
3953;SDS011;1991;48.682;9.030;2023-05-10T07:04:07;1.10;;;0.70;;
3953;SDS011;1991;48.682;9.030;2023-05-10T07:06:33;1.77;;;0.82;;
3953;SDS011;1991;48.682;9.030;2023-05-10T07:08:59;1.00;;;0.93;;
3953;SDS011;1991;48.682;9.030;2023-05-10T07:11:25;2.13;;;0.90;;
3953;SDS011;1991;48.682;9.030;2023-05-10T07:13:51;2.05;;;1.13;;
3953;SDS011;1991;48.682;9.030;2023-05-10T07:16:17;1.55;;;0.85;;
3953;SDS011;1991;48.682;9.030;2023-05-10T07:18:43;1.13;;;1.00;;
3953;SDS011;1991;48.682;9.030;2023-05-10T07:21:09;1.17;;;0.80;;
3953;SDS011;1991;48.682;9.030;2023-05-10T07:23:34;3.38;;;0.98;;
3953;SDS011;1991;48.682;9.030;2023-05-10T07:26:00;1.58;;;0.90;;
3953;SDS011;1991;48.682;9.030;2023-05-10T07:28:27;1.23;;;0.80;;
3953;SDS011;1991;48.682;9.030;2023-05-10T07:30:52;1.40;;;1.00;;
3953;SDS011;1991;48.682;9.030;2023-05-10T07:33:18;2.35;;;1.05;;
3953;SDS011;1991;48.682;9.030;2023-05-10T07:35:44;2.88;;;0.73;;
3953;SDS011;1991;48.682;9.030;2023-05-10T07:38:09;2.58;;;1.33;;
3953;SDS011;1991;48.682;9.030;2023-05-10T07:40:38;3.83;;;0.60;;
3953;SDS011;1991;48.682;9.030;2023-05-10T07:43:05;1.00;;;0.90;;
3953;SDS011;1991;48.682;9.030;2023-05-10T07:45:30;2.35;;;0.55;;
3953;SDS011;1991;48.682;9.030;2023-05-10T07:47:56;1.67;;;0.85;;
3953;SDS011;1991;48.682;9.030;2023-05-10T07:50:22;1.48;;;0.75;;
3953;SDS011;1991;48.682;9.030;2023-05-10T07:52:47;1.17;;;0.60;;
3953;SDS011;1991;48.682;9.030;2023-05-10T07:55:13;3.45;;;0.85;;
3953;SDS011;1991;48.682;9.030;2023-05-10T07:57:39;0.95;;;0.50;;
3953;SDS011;1991;48.682;9.030;2023-05-10T08:00:05;0.80;;;0.40;;
3953;SDS011;1991;48.682;9.030;2023-05-10T08:02:32;1.65;;;0.50;;
3953;SDS011;1991;48.682;9.030;2023-05-10T08:04:59;3.00;;;0.32;;
3953;SDS011;1991;48.682;9.030;2023-05-10T08:07:25;0.40;;;0.30;;
3953;SDS011;1991;48.682;9.030;2023-05-10T08:09:51;1.40;;;0.60;;
3953;SDS011;1991;48.682;9.030;2023-05-10T08:12:16;0.30;;;0.30;;
3953;SDS011;1991;48.682;9.030;2023-05-10T08:14:42;0.70;;;0.40;;
3953;SDS011;1991;48.682;9.030;2023-05-10T08:17:08;0.50;;;0.47;;
3953;SDS011;1991;48.682;9.030;2023-05-10T08:19:33;1.88;;;0.57;;
3953;SDS011;1991;48.682;9.030;2023-05-10T08:21:59;1.25;;;0.40;;
3953;SDS011;1991;48.682;9.030;2023-05-10T08:24:25;0.82;;;0.40;;
3953;SDS011;1991;48.682;9.030;2023-05-10T08:26:51;4.43;;;0.40;;
3953;SDS011;1991;48.682;9.030;2023-05-10T08:29:16;0.75;;;0.40;;
3953;SDS011;1991;48.682;9.030;2023-05-10T08:31:42;4.28;;;0.40;;
3953;SDS011;1991;48.682;9.030;2023-05-10T08:34:07;0.25;;;0.25;;
3953;SDS011;1991;48.682;9.030;2023-05-10T08:36:33;0.80;;;0.30;;
3953;SDS011;1991;48.682;9.030;2023-05-10T08:38:59;2.20;;;0.32;;
3953;SDS011;1991;48.682;9.030;2023-05-10T08:41:25;0.65;;;0.40;;
3953;SDS011;1991;48.682;9.030;2023-05-10T08:43:51;0.40;;;0.35;;
3953;SDS011;1991;48.682;9.030;2023-05-10T08:46:18;0.80;;;0.40;;
3953;SDS011;1991;48.682;9.030;2023-05-10T08:48:46;0.38;;;0.30;;
3953;SDS011;1991;48.682;9.030;2023-05-10T08:51:23;0.65;;;0.30;;
3953;SDS011;1991;48.682;9.030;2023-05-10T08:53:53;1.20;;;0.32;;
3953;SDS011;1991;48.682;9.030;2023-05-10T08:56:19;0.73;;;0.45;;
3953;SDS011;1991;48.682;9.030;2023-05-10T08:58:45;1.40;;;0.40;;
3953;SDS011;1991;48.682;9.030;2023-05-10T09:01:11;3.25;;;0.43;;
3953;SDS011;1991;48.682;9.030;2023-05-10T09:03:38;3.97;;;0.70;;
3953;SDS011;1991;48.682;9.030;2023-05-10T09:06:05;1.88;;;0.35;;
3953;SDS011;1991;48.682;9.030;2023-05-10T09:08:31;0.98;;;0.40;;
3953;SDS011;1991;48.682;9.030;2023-05-10T09:10:58;0.55;;;0.17;;
3953;SDS011;1991;48.682;9.030;2023-05-10T09:13:26;0.30;;;0.20;;
3953;SDS011;1991;48.682;9.030;2023-05-10T09:15:53;2.15;;;0.30;;
3953;SDS011;1991;48.682;9.030;2023-05-10T09:18:19;0.30;;;0.20;;
3953;SDS011;1991;48.682;9.030;2023-05-10T09:20:44;1.27;;;0.30;;
3953;SDS011;1991;48.682;9.030;2023-05-10T09:23:10;3.83;;;0.25;;
3953;SDS011;1991;48.682;9.030;2023-05-10T09:25:36;0.35;;;0.30;;
3953;SDS011;1991;48.682;9.030;2023-05-10T09:28:05;0.68;;;0.50;;
3953;SDS011;1991;48.682;9.030;2023-05-10T09:30:33;0.70;;;0.30;;
3953;SDS011;1991;48.682;9.030;2023-05-10T09:32:58;0.70;;;0.30;;
3953;SDS011;1991;48.682;9.030;2023-05-10T09:35:25;15.60;;;1.05;;
3953;SDS011;1991;48.682;9.030;2023-05-10T09:37:53;2.30;;;0.35;;
3953;SDS011;1991;48.682;9.030;2023-05-10T09:40:20;0.57;;;0.20;;
3953;SDS011;1991;48.682;9.030;2023-05-10T09:43:00;0.88;;;0.28;;
3953;SDS011;1991;48.682;9.030;2023-05-10T09:45:27;0.60;;;0.20;;
3953;SDS011;1991;48.682;9.030;2023-05-10T09:47:54;0.35;;;0.20;;
3953;SDS011;1991;48.682;9.030;2023-05-10T09:50:21;1.45;;;0.20;;
3953;SDS011;1991;48.682;9.030;2023-05-10T09:52:49;0.63;;;0.25;;
3953;SDS011;1991;48.682;9.030;2023-05-10T09:55:19;0.88;;;0.20;;
3953;SDS011;1991;48.682;9.030;2023-05-10T09:57:49;1.10;;;0.20;;
3953;SDS011;1991;48.682;9.030;2023-05-10T10:00:24;1.67;;;0.20;;
3953;SDS011;1991;48.682;9.030;2023-05-10T10:02:56;1.45;;;0.17;;
3953;SDS011;1991;48.682;9.030;2023-05-10T10:05:32;0.20;;;0.20;;
3953;SDS011;1991;48.682;9.030;2023-05-10T10:08:00;1.08;;;0.20;;
3953;SDS011;1991;48.682;9.030;2023-05-10T10:10:27;0.55;;;0.13;;
3953;SDS011;1991;48.682;9.030;2023-05-10T10:12:54;1.30;;;0.20;;
3953;SDS011;1991;48.682;9.030;2023-05-10T10:15:20;0.50;;;0.20;;
3953;SDS011;1991;48.682;9.030;2023-05-10T10:17:46;3.28;;;0.50;;
3953;SDS011;1991;48.682;9.030;2023-05-10T10:20:14;1.20;;;0.30;;
3953;SDS011;1991;48.682;9.030;2023-05-10T10:22:40;1.77;;;0.55;;
3953;SDS011;1991;48.682;9.030;2023-05-10T10:25:07;0.30;;;0.20;;
3953;SDS011;1991;48.682;9.030;2023-05-10T10:35:58;1.25;;;0.30;;
3953;SDS011;1991;48.682;9.030;2023-05-10T10:38:35;0.30;;;0.30;;
3953;SDS011;1991;48.682;9.030;2023-05-10T10:41:28;0.75;;;0.40;;
3953;SDS011;1991;48.682;9.030;2023-05-10T10:44:28;2.83;;;0.50;;
3953;SDS011;1991;48.682;9.030;2023-05-10T10:52:39;2.65;;;0.47;;
3953;SDS011;1991;48.682;9.030;2023-05-10T10:55:38;2.58;;;0.40;;
3953;SDS011;1991;48.682;9.030;2023-05-10T10:57:57;1.33;;;0.50;;
3953;SDS011;1991;48.682;9.030;2023-05-10T11:03:11;2.90;;;0.50;;
3953;SDS011;1991;48.682;9.030;2023-05-10T11:05:47;0.68;;;0.30;;
3953;SDS011;1991;48.682;9.030;2023-05-10T11:13:27;6.28;;;0.52;;
3953;SDS011;1991;48.682;9.030;2023-05-10T11:15:53;2.80;;;0.35;;
3953;SDS011;1991;48.682;9.030;2023-05-10T11:20:58;1.77;;;0.47;;
3953;SDS011;1991;48.682;9.030;2023-05-10T11:23:31;9.50;;;1.77;;
3953;SDS011;1991;48.682;9.030;2023-05-10T11:25:58;1.42;;;0.30;;
3953;SDS011;1991;48.682;9.030;2023-05-10T11:28:29;4.53;;;0.70;;
3953;SDS011;1991;48.682;9.030;2023-05-10T11:30:55;1.15;;;0.30;;
3953;SDS011;1991;48.682;9.030;2023-05-10T11:33:21;1.30;;;0.30;;
3953;SDS011;1991;48.682;9.030;2023-05-10T11:35:47;0.63;;;0.30;;
3953;SDS011;1991;48.682;9.030;2023-05-10T11:38:13;1.58;;;0.50;;
3953;SDS011;1991;48.682;9.030;2023-05-10T11:40:40;1.23;;;0.50;;
3953;SDS011;1991;48.682;9.030;2023-05-10T11:43:06;2.70;;;0.43;;
3953;SDS011;1991;48.682;9.030;2023-05-10T11:45:34;1.85;;;0.30;;
3953;SDS011;1991;48.682;9.030;2023-05-10T11:48:00;3.13;;;0.65;;
3953;SDS011;1991;48.682;9.030;2023-05-10T11:50:27;1.75;;;0.40;;
3953;SDS011;1991;48.682;9.030;2023-05-10T11:52:53;3.90;;;0.55;;
3953;SDS011;1991;48.682;9.030;2023-05-10T11:55:20;2.13;;;0.47;;
3953;SDS011;1991;48.682;9.030;2023-05-10T11:57:46;1.95;;;0.40;;
3953;SDS011;1991;48.682;9.030;2023-05-10T12:00:15;4.05;;;0.40;;
3953;SDS011;1991;48.682;9.030;2023-05-10T12:02:41;2.20;;;0.63;;
3953;SDS011;1991;48.682;9.030;2023-05-10T12:05:07;1.95;;;0.50;;
3953;SDS011;1991;48.682;9.030;2023-05-10T12:07:33;1.90;;;0.50;;
3953;SDS011;1991;48.682;9.030;2023-05-10T12:10:08;1.48;;;0.40;;
3953;SDS011;1991;48.682;9.030;2023-05-10T12:12:44;1.58;;;0.50;;
3953;SDS011;1991;48.682;9.030;2023-05-10T12:15:19;3.40;;;0.50;;
3953;SDS011;1991;48.682;9.030;2023-05-10T12:17:49;1.15;;;0.40;;
3953;SDS011;1991;48.682;9.030;2023-05-10T12:20:23;0.43;;;0.40;;
3953;SDS011;1991;48.682;9.030;2023-05-10T12:22:53;3.33;;;0.50;;
3953;SDS011;1991;48.682;9.030;2023-05-10T12:25:24;1.77;;;0.57;;
3953;SDS011;1991;48.682;9.030;2023-05-10T12:27:56;1.95;;;0.35;;
3953;SDS011;1991;48.682;9.030;2023-05-10T12:30:27;3.03;;;0.40;;
3953;SDS011;1991;48.682;9.030;2023-05-10T12:32:58;1.70;;;0.60;;
3953;SDS011;1991;48.682;9.030;2023-05-10T12:35:49;2.10;;;0.63;;
3953;SDS011;1991;48.682;9.030;2023-05-10T12:38:31;1.17;;;0.60;;
3953;SDS011;1991;48.682;9.030;2023-05-10T12:40:58;2.63;;;0.50;;
3953;SDS011;1991;48.682;9.030;2023-05-10T12:43:25;3.00;;;0.55;;
3953;SDS011;1991;48.682;9.030;2023-05-10T12:45:51;1.23;;;0.50;;
3953;SDS011;1991;48.682;9.030;2023-05-10T12:48:17;2.65;;;0.50;;
3953;SDS011;1991;48.682;9.030;2023-05-10T12:50:43;1.80;;;0.55;;
3953;SDS011;1991;48.682;9.030;2023-05-10T12:53:08;5.10;;;0.68;;
3953;SDS011;1991;48.682;9.030;2023-05-10T12:55:34;2.65;;;0.88;;
3953;SDS011;1991;48.682;9.030;2023-05-10T12:58:00;1.60;;;0.60;;
3953;SDS011;1991;48.682;9.030;2023-05-10T13:00:25;4.70;;;0.40;;
3953;SDS011;1991;48.682;9.030;2023-05-10T13:02:51;1.40;;;0.50;;
3953;SDS011;1991;48.682;9.030;2023-05-10T13:05:17;2.47;;;0.63;;
3953;SDS011;1991;48.682;9.030;2023-05-10T13:07:43;1.98;;;0.47;;
3953;SDS011;1991;48.682;9.030;2023-05-10T13:10:09;4.13;;;0.55;;
3953;SDS011;1991;48.682;9.030;2023-05-10T13:12:36;1.23;;;0.50;;
3953;SDS011;1991;48.682;9.030;2023-05-10T13:15:02;3.53;;;0.65;;
3953;SDS011;1991;48.682;9.030;2023-05-10T13:17:28;3.50;;;0.60;;
3953;SDS011;1991;48.682;9.030;2023-05-10T13:19:54;2.05;;;0.52;;
3953;SDS011;1991;48.682;9.030;2023-05-10T13:22:20;5.30;;;0.75;;
3953;SDS011;1991;48.682;9.030;2023-05-10T13:24:45;1.45;;;0.50;;
3953;SDS011;1991;48.682;9.030;2023-05-10T13:27:11;2.00;;;0.40;;
3953;SDS011;1991;48.682;9.030;2023-05-10T13:29:37;1.15;;;0.45;;
3953;SDS011;1991;48.682;9.030;2023-05-10T13:32:02;1.95;;;0.70;;
3953;SDS011;1991;48.682;9.030;2023-05-10T13:34:28;1.50;;;0.43;;
3953;SDS011;1991;48.682;9.030;2023-05-10T13:36:54;4.43;;;0.75;;
3953;SDS011;1991;48.682;9.030;2023-05-10T13:39:21;3.25;;;0.68;;
3953;SDS011;1991;48.682;9.030;2023-05-10T13:41:46;2.00;;;0.57;;
3953;SDS011;1991;48.682;9.030;2023-05-10T13:44:13;3.42;;;0.70;;
3953;SDS011;1991;48.682;9.030;2023-05-10T13:46:40;4.35;;;0.60;;
3953;SDS011;1991;48.682;9.030;2023-05-10T13:49:07;6.85;;;0.85;;
3953;SDS011;1991;48.682;9.030;2023-05-10T13:51:34;2.70;;;0.50;;
3953;SDS011;1991;48.682;9.030;2023-05-10T13:53:59;1.45;;;0.50;;
3953;SDS011;1991;48.682;9.030;2023-05-10T13:56:25;4.25;;;0.70;;
3953;SDS011;1991;48.682;9.030;2023-05-10T13:58:51;0.68;;;0.30;;
3953;SDS011;1991;48.682;9.030;2023-05-10T14:01:17;3.45;;;0.40;;
3953;SDS011;1991;48.682;9.030;2023-05-10T14:03:42;2.35;;;0.60;;
3953;SDS011;1991;48.682;9.030;2023-05-10T14:06:08;3.75;;;0.60;;
3953;SDS011;1991;48.682;9.030;2023-05-10T14:08:35;1.15;;;0.50;;
3953;SDS011;1991;48.682;9.030;2023-05-10T14:11:00;1.40;;;0.65;;
3953;SDS011;1991;48.682;9.030;2023-05-10T14:13:26;1.35;;;0.60;;
3953;SDS011;1991;48.682;9.030;2023-05-10T14:15:52;1.83;;;0.70;;
3953;SDS011;1991;48.682;9.030;2023-05-10T14:18:19;3.28;;;0.60;;
3953;SDS011;1991;48.682;9.030;2023-05-10T14:20:44;2.33;;;0.50;;
3953;SDS011;1991;48.682;9.030;2023-05-10T14:23:10;3.28;;;0.60;;
3953;SDS011;1991;48.682;9.030;2023-05-10T14:25:36;2.30;;;0.60;;
3953;SDS011;1991;48.682;9.030;2023-05-10T14:28:03;1.95;;;0.57;;
3953;SDS011;1991;48.682;9.030;2023-05-10T14:30:28;4.72;;;0.68;;
3953;SDS011;1991;48.682;9.030;2023-05-10T14:32:54;1.60;;;0.50;;
3953;SDS011;1991;48.682;9.030;2023-05-10T14:35:20;0.75;;;0.43;;
3953;SDS011;1991;48.682;9.030;2023-05-10T14:37:46;3.13;;;0.60;;
3953;SDS011;1991;48.682;9.030;2023-05-10T14:40:11;2.58;;;0.57;;
3953;SDS011;1991;48.682;9.030;2023-05-10T14:42:37;2.20;;;0.60;;
3953;SDS011;1991;48.682;9.030;2023-05-10T14:45:03;1.00;;;0.50;;
3953;SDS011;1991;48.682;9.030;2023-05-10T14:47:29;1.50;;;0.50;;
3953;SDS011;1991;48.682;9.030;2023-05-10T14:49:55;1.80;;;0.43;;
3953;SDS011;1991;48.682;9.030;2023-05-10T14:52:20;0.90;;;0.50;;
3953;SDS011;1991;48.682;9.030;2023-05-10T14:54:46;1.45;;;0.35;;
3953;SDS011;1991;48.682;9.030;2023-05-10T14:57:12;1.33;;;0.50;;
3953;SDS011;1991;48.682;9.030;2023-05-10T14:59:38;0.73;;;0.30;;
3953;SDS011;1991;48.682;9.030;2023-05-10T15:02:04;0.95;;;0.35;;
3953;SDS011;1991;48.682;9.030;2023-05-10T15:04:30;2.63;;;0.30;;
3953;SDS011;1991;48.682;9.030;2023-05-10T15:06:56;2.95;;;0.40;;
3953;SDS011;1991;48.682;9.030;2023-05-10T15:09:25;1.13;;;0.45;;
3953;SDS011;1991;48.682;9.030;2023-05-10T15:11:52;3.22;;;0.32;;
3953;SDS011;1991;48.682;9.030;2023-05-10T15:14:18;1.10;;;0.47;;
3953;SDS011;1991;48.682;9.030;2023-05-10T15:16:43;1.75;;;0.65;;
3953;SDS011;1991;48.682;9.030;2023-05-10T15:19:09;1.45;;;0.52;;
3953;SDS011;1991;48.682;9.030;2023-05-10T15:21:35;0.40;;;0.30;;
3953;SDS011;1991;48.682;9.030;2023-05-10T15:24:04;1.88;;;0.40;;
3953;SDS011;1991;48.682;9.030;2023-05-10T15:26:30;1.45;;;0.35;;
3953;SDS011;1991;48.682;9.030;2023-05-10T15:28:56;4.15;;;0.75;;
3953;SDS011;1991;48.682;9.030;2023-05-10T15:31:22;1.85;;;0.50;;
3953;SDS011;1991;48.682;9.030;2023-05-10T15:33:48;3.28;;;0.40;;
3953;SDS011;1991;48.682;9.030;2023-05-10T15:36:13;3.03;;;0.60;;
3953;SDS011;1991;48.682;9.030;2023-05-10T15:38:39;1.60;;;0.40;;
3953;SDS011;1991;48.682;9.030;2023-05-10T15:41:04;0.65;;;0.22;;
3953;SDS011;1991;48.682;9.030;2023-05-10T15:43:30;1.55;;;0.60;;
3953;SDS011;1991;48.682;9.030;2023-05-10T15:45:56;3.00;;;0.32;;
3953;SDS011;1991;48.682;9.030;2023-05-10T15:48:21;2.25;;;0.60;;
3953;SDS011;1991;48.682;9.030;2023-05-10T15:50:47;3.15;;;0.52;;
3953;SDS011;1991;48.682;9.030;2023-05-10T15:53:13;2.47;;;0.40;;
3953;SDS011;1991;48.682;9.030;2023-05-10T15:55:38;1.23;;;0.57;;
3953;SDS011;1991;48.682;9.030;2023-05-10T15:58:04;2.53;;;0.50;;